sensor_id;sensor_type;location;lat;lon;timestamp;temperature;humidity
11989;DHT22;6054;50.966;7.094;2023-07-08T00:00:11;32.40;31.10
11989;DHT22;6054;50.966;7.094;2023-07-08T00:02:40;32.40;31.50
11989;DHT22;6054;50.966;7.094;2023-07-08T00:05:08;32.40;31.50
11989;DHT22;6054;50.966;7.094;2023-07-08T00:07:37;32.30;31.60
11989;DHT22;6054;50.966;7.094;2023-07-08T00:10:12;32.20;31.30
11989;DHT22;6054;50.966;7.094;2023-07-08T00:12:39;32.10;31.60
11989;DHT22;6054;50.966;7.094;2023-07-08T00:15:06;32.00;31.10
11989;DHT22;6054;50.966;7.094;2023-07-08T00:17:33;32.00;31.70
11989;DHT22;6054;50.966;7.094;2023-07-08T00:20:00;31.90;31.20
11989;DHT22;6054;50.966;7.094;2023-07-08T00:22:27;32.00;31.90
11989;DHT22;6054;50.966;7.094;2023-07-08T00:24:55;31.80;31.30
11989;DHT22;6054;50.966;7.094;2023-07-08T00:27:22;31.80;31.90
11989;DHT22;6054;50.966;7.094;2023-07-08T00:29:48;31.60;32.20
11989;DHT22;6054;50.966;7.094;2023-07-08T00:32:15;31.60;32.70
11989;DHT22;6054;50.966;7.094;2023-07-08T00:34:42;31.60;32.60
11989;DHT22;6054;50.966;7.094;2023-07-08T00:37:11;31.50;32.60
11989;DHT22;6054;50.966;7.094;2023-07-08T00:39:38;31.60;33.00
11989;DHT22;6054;50.966;7.094;2023-07-08T00:42:13;31.40;33.10
11989;DHT22;6054;50.966;7.094;2023-07-08T00:44:41;31.40;33.70
11989;DHT22;6054;50.966;7.094;2023-07-08T00:47:12;31.30;33.70
11989;DHT22;6054;50.966;7.094;2023-07-08T00:49:42;31.10;33.50
11989;DHT22;6054;50.966;7.094;2023-07-08T00:52:21;31.20;33.70
11989;DHT22;6054;50.966;7.094;2023-07-08T00:54:53;31.10;34.00
11989;DHT22;6054;50.966;7.094;2023-07-08T00:57:24;31.20;33.90
11989;DHT22;6054;50.966;7.094;2023-07-08T00:59:54;31.00;34.00
11989;DHT22;6054;50.966;7.094;2023-07-08T01:02:23;30.90;34.00
11989;DHT22;6054;50.966;7.094;2023-07-08T01:04:54;31.00;34.20
11989;DHT22;6054;50.966;7.094;2023-07-08T01:07:24;30.80;34.40
11989;DHT22;6054;50.966;7.094;2023-07-08T01:09:54;30.80;34.30
11989;DHT22;6054;50.966;7.094;2023-07-08T01:12:27;30.80;34.30
11989;DHT22;6054;50.966;7.094;2023-07-08T01:14:56;30.70;34.30
11989;DHT22;6054;50.966;7.094;2023-07-08T01:17:23;30.80;34.70
11989;DHT22;6054;50.966;7.094;2023-07-08T01:19:50;30.70;34.30
11989;DHT22;6054;50.966;7.094;2023-07-08T01:22:22;30.60;34.50
11989;DHT22;6054;50.966;7.094;2023-07-08T01:24:49;30.60;34.50
11989;DHT22;6054;50.966;7.094;2023-07-08T01:27:18;30.70;34.60
11989;DHT22;6054;50.966;7.094;2023-07-08T01:29:46;30.70;35.50
11989;DHT22;6054;50.966;7.094;2023-07-08T01:32:14;30.50;35.30
11989;DHT22;6054;50.966;7.094;2023-07-08T01:34:44;30.50;35.50
11989;DHT22;6054;50.966;7.094;2023-07-08T01:37:18;30.50;35.60
11989;DHT22;6054;50.966;7.094;2023-07-08T01:39:47;30.40;35.30
11989;DHT22;6054;50.966;7.094;2023-07-08T01:42:14;30.40;35.30
11989;DHT22;6054;50.966;7.094;2023-07-08T01:44:41;30.30;35.40
11989;DHT22;6054;50.966;7.094;2023-07-08T01:47:12;30.40;35.50
11989;DHT22;6054;50.966;7.094;2023-07-08T01:49:42;30.20;35.90
11989;DHT22;6054;50.966;7.094;2023-07-08T01:52:10;30.30;36.20
11989;DHT22;6054;50.966;7.094;2023-07-08T01:54:38;30.30;36.20
11989;DHT22;6054;50.966;7.094;2023-07-08T01:57:06;30.20;35.60
11989;DHT22;6054;50.966;7.094;2023-07-08T01:59:33;30.10;35.20
11989;DHT22;6054;50.966;7.094;2023-07-08T02:02:00;30.30;35.30
11989;DHT22;6054;50.966;7.094;2023-07-08T02:04:27;30.30;35.40
11989;DHT22;6054;50.966;7.094;2023-07-08T02:06:57;30.20;35.50
11989;DHT22;6054;50.966;7.094;2023-07-08T02:09:24;30.20;36.00
11989;DHT22;6054;50.966;7.094;2023-07-08T02:11:51;30.00;35.90
11989;DHT22;6054;50.966;7.094;2023-07-08T02:14:18;30.00;35.70
11989;DHT22;6054;50.966;7.094;2023-07-08T02:16:45;29.90;35.80
11989;DHT22;6054;50.966;7.094;2023-07-08T02:19:12;29.90;36.70
11989;DHT22;6054;50.966;7.094;2023-07-08T02:21:39;29.80;36.30
11989;DHT22;6054;50.966;7.094;2023-07-08T02:24:07;30.10;36.60
11989;DHT22;6054;50.966;7.094;2023-07-08T02:26:33;29.70;37.00
11989;DHT22;6054;50.966;7.094;2023-07-08T02:29:00;29.70;36.60
11989;DHT22;6054;50.966;7.094;2023-07-08T02:31:29;29.70;36.30
11989;DHT22;6054;50.966;7.094;2023-07-08T02:33:56;29.70;36.80
11989;DHT22;6054;50.966;7.094;2023-07-08T02:36:23;29.80;36.90
11989;DHT22;6054;50.966;7.094;2023-07-08T02:38:49;29.60;37.00
11989;DHT22;6054;50.966;7.094;2023-07-08T02:41:16;29.60;37.40
11989;DHT22;6054;50.966;7.094;2023-07-08T02:43:43;29.80;37.50
11989;DHT22;6054;50.966;7.094;2023-07-08T02:46:10;29.70;37.10
11989;DHT22;6054;50.966;7.094;2023-07-08T02:48:38;29.40;37.20
11989;DHT22;6054;50.966;7.094;2023-07-08T02:51:05;29.40;37.40
11989;DHT22;6054;50.966;7.094;2023-07-08T02:53:34;29.40;37.80
11989;DHT22;6054;50.966;7.094;2023-07-08T02:56:00;29.60;37.90
11989;DHT22;6054;50.966;7.094;2023-07-08T02:58:28;29.30;37.70
11989;DHT22;6054;50.966;7.094;2023-07-08T03:00:55;29.20;37.70
11989;DHT22;6054;50.966;7.094;2023-07-08T03:03:24;29.20;38.20
11989;DHT22;6054;50.966;7.094;2023-07-08T03:05:56;29.30;38.10
11989;DHT22;6054;50.966;7.094;2023-07-08T03:08:22;29.40;38.40
11989;DHT22;6054;50.966;7.094;2023-07-08T03:10:55;29.30;38.30
11989;DHT22;6054;50.966;7.094;2023-07-08T03:13:22;29.00;38.50
11989;DHT22;6054;50.966;7.094;2023-07-08T03:15:50;29.00;38.20
11989;DHT22;6054;50.966;7.094;2023-07-08T03:18:16;29.20;38.60
11989;DHT22;6054;50.966;7.094;2023-07-08T03:20:43;28.90;38.40
11989;DHT22;6054;50.966;7.094;2023-07-08T03:23:13;28.80;38.60
11989;DHT22;6054;50.966;7.094;2023-07-08T03:25:39;28.80;38.30
11989;DHT22;6054;50.966;7.094;2023-07-08T03:28:06;28.80;38.50
11989;DHT22;6054;50.966;7.094;2023-07-08T03:30:39;28.70;38.80
11989;DHT22;6054;50.966;7.094;2023-07-08T03:33:06;28.90;39.00
11989;DHT22;6054;50.966;7.094;2023-07-08T03:35:33;28.90;39.00
11989;DHT22;6054;50.966;7.094;2023-07-08T03:38:00;28.70;38.90
11989;DHT22;6054;50.966;7.094;2023-07-08T03:40:28;28.70;39.20
11989;DHT22;6054;50.966;7.094;2023-07-08T03:42:55;28.60;39.00
11989;DHT22;6054;50.966;7.094;2023-07-08T03:45:21;28.60;39.10
11989;DHT22;6054;50.966;7.094;2023-07-08T03:47:48;28.60;39.20
11989;DHT22;6054;50.966;7.094;2023-07-08T03:50:19;28.60;39.20
11989;DHT22;6054;50.966;7.094;2023-07-08T03:52:46;28.60;40.20
11989;DHT22;6054;50.966;7.094;2023-07-08T03:55:13;28.70;39.60
11989;DHT22;6054;50.966;7.094;2023-07-08T03:57:41;28.50;39.70
11989;DHT22;6054;50.966;7.094;2023-07-08T04:00:08;28.40;39.50
11989;DHT22;6054;50.966;7.094;2023-07-08T04:02:37;28.40;39.80
11989;DHT22;6054;50.966;7.094;2023-07-08T04:05:05;28.40;39.60
11989;DHT22;6054;50.966;7.094;2023-07-08T04:07:32;28.40;39.90
11989;DHT22;6054;50.966;7.094;2023-07-08T04:09:58;28.30;39.70
11989;DHT22;6054;50.966;7.094;2023-07-08T04:12:26;28.60;40.70
11989;DHT22;6054;50.966;7.094;2023-07-08T04:14:54;28.50;40.30
11989;DHT22;6054;50.966;7.094;2023-07-08T04:17:21;28.30;40.00
11989;DHT22;6054;50.966;7.094;2023-07-08T04:19:48;28.30;40.40
11989;DHT22;6054;50.966;7.094;2023-07-08T04:22:15;28.30;40.50
11989;DHT22;6054;50.966;7.094;2023-07-08T04:24:42;28.40;40.70
11989;DHT22;6054;50.966;7.094;2023-07-08T04:27:13;28.30;40.60
11989;DHT22;6054;50.966;7.094;2023-07-08T04:29:41;28.30;40.80
11989;DHT22;6054;50.966;7.094;2023-07-08T04:32:09;28.30;40.60
11989;DHT22;6054;50.966;7.094;2023-07-08T04:34:36;28.50;41.50
11989;DHT22;6054;50.966;7.094;2023-07-08T04:37:03;28.20;40.50
11989;DHT22;6054;50.966;7.094;2023-07-08T04:39:30;28.30;41.10
11989;DHT22;6054;50.966;7.094;2023-07-08T04:41:57;28.30;41.20
11989;DHT22;6054;50.966;7.094;2023-07-08T04:44:25;28.30;41.10
11989;DHT22;6054;50.966;7.094;2023-07-08T04:46:55;28.40;41.20
11989;DHT22;6054;50.966;7.094;2023-07-08T04:49:24;28.30;41.30
11989;DHT22;6054;50.966;7.094;2023-07-08T04:51:57;28.40;41.10
11989;DHT22;6054;50.966;7.094;2023-07-08T04:54:23;28.40;41.00
11989;DHT22;6054;50.966;7.094;2023-07-08T04:56:50;28.80;41.10
11989;DHT22;6054;50.966;7.094;2023-07-08T04:59:23;28.50;41.20
11989;DHT22;6054;50.966;7.094;2023-07-08T05:01:50;28.80;41.70
11989;DHT22;6054;50.966;7.094;2023-07-08T05:04:18;28.60;41.40
11989;DHT22;6054;50.966;7.094;2023-07-08T05:06:47;28.80;41.80
11989;DHT22;6054;50.966;7.094;2023-07-08T05:09:14;28.60;41.70
11989;DHT22;6054;50.966;7.094;2023-07-08T05:11:41;28.90;41.70
11989;DHT22;6054;50.966;7.094;2023-07-08T05:14:07;28.70;41.60
11989;DHT22;6054;50.966;7.094;2023-07-08T05:16:35;28.70;41.50
11989;DHT22;6054;50.966;7.094;2023-07-08T05:19:02;28.80;41.70
11989;DHT22;6054;50.966;7.094;2023-07-08T05:21:30;28.80;41.60
11989;DHT22;6054;50.966;7.094;2023-07-08T05:24:00;28.90;41.70
11989;DHT22;6054;50.966;7.094;2023-07-08T05:26:27;28.90;41.70
11989;DHT22;6054;50.966;7.094;2023-07-08T05:28:54;29.00;41.40
11989;DHT22;6054;50.966;7.094;2023-07-08T05:31:20;29.00;41.40
11989;DHT22;6054;50.966;7.094;2023-07-08T05:33:47;29.00;41.40
11989;DHT22;6054;50.966;7.094;2023-07-08T05:36:14;29.00;41.50
11989;DHT22;6054;50.966;7.094;2023-07-08T05:38:41;29.10;41.80
11989;DHT22;6054;50.966;7.094;2023-07-08T05:41:09;29.40;42.10
11989;DHT22;6054;50.966;7.094;2023-07-08T05:43:35;29.20;42.10
11989;DHT22;6054;50.966;7.094;2023-07-08T05:46:02;29.20;41.90
11989;DHT22;6054;50.966;7.094;2023-07-08T05:48:29;29.30;42.60
11989;DHT22;6054;50.966;7.094;2023-07-08T05:50:56;29.40;43.00
11989;DHT22;6054;50.966;7.094;2023-07-08T05:53:23;29.30;43.20
11989;DHT22;6054;50.966;7.094;2023-07-08T05:55:50;29.30;43.10
11989;DHT22;6054;50.966;7.094;2023-07-08T05:58:18;29.40;43.30
11989;DHT22;6054;50.966;7.094;2023-07-08T06:00:45;29.60;43.30
11989;DHT22;6054;50.966;7.094;2023-07-08T06:03:12;29.40;43.40
11989;DHT22;6054;50.966;7.094;2023-07-08T06:05:39;29.30;43.30
11989;DHT22;6054;50.966;7.094;2023-07-08T06:08:06;29.40;43.40
11989;DHT22;6054;50.966;7.094;2023-07-08T06:10:34;29.20;43.60
11989;DHT22;6054;50.966;7.094;2023-07-08T06:13:00;29.20;43.60
11989;DHT22;6054;50.966;7.094;2023-07-08T06:15:29;29.40;43.70
11989;DHT22;6054;50.966;7.094;2023-07-08T06:17:55;29.40;43.70
11989;DHT22;6054;50.966;7.094;2023-07-08T06:20:26;29.40;43.70
11989;DHT22;6054;50.966;7.094;2023-07-08T06:22:52;29.40;43.40
11989;DHT22;6054;50.966;7.094;2023-07-08T06:25:19;29.50;43.10
11989;DHT22;6054;50.966;7.094;2023-07-08T06:27:46;29.60;43.00
11989;DHT22;6054;50.966;7.094;2023-07-08T06:30:13;29.60;42.60
11989;DHT22;6054;50.966;7.094;2023-07-08T06:32:41;29.70;41.80
11989;DHT22;6054;50.966;7.094;2023-07-08T06:35:08;30.00;41.60
11989;DHT22;6054;50.966;7.094;2023-07-08T06:37:35;29.90;42.00
11989;DHT22;6054;50.966;7.094;2023-07-08T06:40:03;30.10;41.50
11989;DHT22;6054;50.966;7.094;2023-07-08T06:42:30;30.10;42.60
11989;DHT22;6054;50.966;7.094;2023-07-08T06:44:57;30.30;41.60
11989;DHT22;6054;50.966;7.094;2023-07-08T06:47:24;30.50;40.50
11989;DHT22;6054;50.966;7.094;2023-07-08T06:49:52;30.50;39.90
11989;DHT22;6054;50.966;7.094;2023-07-08T06:52:18;30.60;39.30
11989;DHT22;6054;50.966;7.094;2023-07-08T06:54:45;30.90;39.40
11989;DHT22;6054;50.966;7.094;2023-07-08T06:57:12;30.90;39.40
11989;DHT22;6054;50.966;7.094;2023-07-08T06:59:39;31.10;39.40
11989;DHT22;6054;50.966;7.094;2023-07-08T07:02:06;31.20;39.20
11989;DHT22;6054;50.966;7.094;2023-07-08T07:04:32;31.30;38.80
11989;DHT22;6054;50.966;7.094;2023-07-08T07:07:02;31.40;37.00
11989;DHT22;6054;50.966;7.094;2023-07-08T07:09:29;31.50;36.00
11989;DHT22;6054;50.966;7.094;2023-07-08T07:11:56;31.60;34.90
11989;DHT22;6054;50.966;7.094;2023-07-08T07:14:22;31.70;34.30
11989;DHT22;6054;50.966;7.094;2023-07-08T07:16:49;31.80;34.50
11989;DHT22;6054;50.966;7.094;2023-07-08T07:19:16;31.80;34.70
11989;DHT22;6054;50.966;7.094;2023-07-08T07:21:43;31.90;34.40
11989;DHT22;6054;50.966;7.094;2023-07-08T07:24:11;32.00;34.60
11989;DHT22;6054;50.966;7.094;2023-07-08T07:26:37;32.10;34.50
11989;DHT22;6054;50.966;7.094;2023-07-08T07:29:04;32.20;33.60
11989;DHT22;6054;50.966;7.094;2023-07-08T07:31:32;32.30;32.60
11989;DHT22;6054;50.966;7.094;2023-07-08T07:33:59;32.60;31.40
11989;DHT22;6054;50.966;7.094;2023-07-08T07:36:27;32.50;31.50
11989;DHT22;6054;50.966;7.094;2023-07-08T07:38:54;32.70;31.10
11989;DHT22;6054;50.966;7.094;2023-07-08T07:41:22;32.70;30.80
11989;DHT22;6054;50.966;7.094;2023-07-08T07:43:49;32.80;30.80
11989;DHT22;6054;50.966;7.094;2023-07-08T07:46:16;32.80;30.50
11989;DHT22;6054;50.966;7.094;2023-07-08T07:48:43;32.80;30.70
11989;DHT22;6054;50.966;7.094;2023-07-08T07:51:09;32.90;31.20
11989;DHT22;6054;50.966;7.094;2023-07-08T07:53:38;32.90;30.60
11989;DHT22;6054;50.966;7.094;2023-07-08T07:56:05;33.00;31.00
11989;DHT22;6054;50.966;7.094;2023-07-08T07:58:33;33.10;31.20
11989;DHT22;6054;50.966;7.094;2023-07-08T08:01:00;33.20;30.90
11989;DHT22;6054;50.966;7.094;2023-07-08T08:03:27;33.30;30.50
11989;DHT22;6054;50.966;7.094;2023-07-08T08:05:54;33.50;30.50
11989;DHT22;6054;50.966;7.094;2023-07-08T08:08:20;33.30;29.90
11989;DHT22;6054;50.966;7.094;2023-07-08T08:10:48;33.60;30.00
11989;DHT22;6054;50.966;7.094;2023-07-08T08:13:15;33.60;30.00
11989;DHT22;6054;50.966;7.094;2023-07-08T08:15:43;33.60;29.40
11989;DHT22;6054;50.966;7.094;2023-07-08T08:18:10;33.60;29.60
11989;DHT22;6054;50.966;7.094;2023-07-08T08:20:36;33.70;29.40
11989;DHT22;6054;50.966;7.094;2023-07-08T08:23:05;33.90;29.60
11989;DHT22;6054;50.966;7.094;2023-07-08T08:25:32;34.00;29.90
11989;DHT22;6054;50.966;7.094;2023-07-08T08:27:59;34.30;29.70
11989;DHT22;6054;50.966;7.094;2023-07-08T08:30:26;34.20;29.60
11989;DHT22;6054;50.966;7.094;2023-07-08T08:32:54;34.60;29.50
11989;DHT22;6054;50.966;7.094;2023-07-08T08:35:21;34.50;28.60
11989;DHT22;6054;50.966;7.094;2023-07-08T08:37:48;34.60;28.70
11989;DHT22;6054;50.966;7.094;2023-07-08T08:40:16;34.70;28.60
11989;DHT22;6054;50.966;7.094;2023-07-08T08:42:50;34.90;28.70
11989;DHT22;6054;50.966;7.094;2023-07-08T08:45:19;34.90;28.70
11989;DHT22;6054;50.966;7.094;2023-07-08T08:47:52;35.10;28.70
11989;DHT22;6054;50.966;7.094;2023-07-08T08:50:30;35.10;28.90
11989;DHT22;6054;50.966;7.094;2023-07-08T08:52:59;35.30;28.70
11989;DHT22;6054;50.966;7.094;2023-07-08T08:55:28;35.30;28.50
11989;DHT22;6054;50.966;7.094;2023-07-08T08:58:02;35.40;28.70
11989;DHT22;6054;50.966;7.094;2023-07-08T09:00:46;35.60;28.50
11989;DHT22;6054;50.966;7.094;2023-07-08T09:03:30;35.70;28.50
11989;DHT22;6054;50.966;7.094;2023-07-08T09:06:01;35.80;28.50
11989;DHT22;6054;50.966;7.094;2023-07-08T09:08:31;35.90;28.00
11989;DHT22;6054;50.966;7.094;2023-07-08T09:11:03;36.00;28.10
11989;DHT22;6054;50.966;7.094;2023-07-08T09:13:35;36.20;28.10
11989;DHT22;6054;50.966;7.094;2023-07-08T09:16:06;36.20;28.20
11989;DHT22;6054;50.966;7.094;2023-07-08T09:18:38;36.30;28.20
11989;DHT22;6054;50.966;7.094;2023-07-08T09:21:22;36.40;28.30
11989;DHT22;6054;50.966;7.094;2023-07-08T09:23:55;36.50;27.80
11989;DHT22;6054;50.966;7.094;2023-07-08T09:26:27;36.60;27.90
11989;DHT22;6054;50.966;7.094;2023-07-08T09:28:55;36.70;27.80
11989;DHT22;6054;50.966;7.094;2023-07-08T09:31:24;37.00;27.80
11989;DHT22;6054;50.966;7.094;2023-07-08T09:33:52;37.10;28.00
11989;DHT22;6054;50.966;7.094;2023-07-08T09:36:23;37.00;27.90
11989;DHT22;6054;50.966;7.094;2023-07-08T09:38:51;37.10;27.70
11989;DHT22;6054;50.966;7.094;2023-07-08T09:41:29;37.40;27.40
11989;DHT22;6054;50.966;7.094;2023-07-08T09:44:22;37.60;27.40
11989;DHT22;6054;50.966;7.094;2023-07-08T09:46:51;37.60;27.10
11989;DHT22;6054;50.966;7.094;2023-07-08T09:49:22;37.60;26.90
11989;DHT22;6054;50.966;7.094;2023-07-08T09:51:50;37.70;26.70
11989;DHT22;6054;50.966;7.094;2023-07-08T09:54:19;37.80;26.60
11989;DHT22;6054;50.966;7.094;2023-07-08T09:56:58;37.80;26.50
11989;DHT22;6054;50.966;7.094;2023-07-08T09:59:30;37.90;26.60
11989;DHT22;6054;50.966;7.094;2023-07-08T10:02:00;38.00;26.70
11989;DHT22;6054;50.966;7.094;2023-07-08T10:04:28;38.10;26.80
11989;DHT22;6054;50.966;7.094;2023-07-08T10:06:56;38.20;26.50
11989;DHT22;6054;50.966;7.094;2023-07-08T10:09:24;38.30;26.40
11989;DHT22;6054;50.966;7.094;2023-07-08T10:11:56;38.40;26.40
11989;DHT22;6054;50.966;7.094;2023-07-08T10:14:27;38.50;26.60
11989;DHT22;6054;50.966;7.094;2023-07-08T10:16:55;38.70;26.70
11989;DHT22;6054;50.966;7.094;2023-07-08T10:19:22;38.80;26.20
11989;DHT22;6054;50.966;7.094;2023-07-08T10:22:05;38.80;25.60
11989;DHT22;6054;50.966;7.094;2023-07-08T10:24:45;38.90;25.90
11989;DHT22;6054;50.966;7.094;2023-07-08T10:27:24;38.90;25.90
11989;DHT22;6054;50.966;7.094;2023-07-08T10:30:01;39.20;25.70
11989;DHT22;6054;50.966;7.094;2023-07-08T10:32:37;39.20;25.50
11989;DHT22;6054;50.966;7.094;2023-07-08T10:35:13;39.20;25.60
11989;DHT22;6054;50.966;7.094;2023-07-08T10:37:53;39.30;26.00
11989;DHT22;6054;50.966;7.094;2023-07-08T10:40:34;39.40;25.90
11989;DHT22;6054;50.966;7.094;2023-07-08T10:43:28;39.50;26.30
11989;DHT22;6054;50.966;7.094;2023-07-08T10:46:04;39.50;25.20
11989;DHT22;6054;50.966;7.094;2023-07-08T10:48:44;39.60;24.90
11989;DHT22;6054;50.966;7.094;2023-07-08T10:51:19;39.60;25.00
11989;DHT22;6054;50.966;7.094;2023-07-08T10:54:05;39.70;25.00
11989;DHT22;6054;50.966;7.094;2023-07-08T10:56:37;40.00;25.40
11989;DHT22;6054;50.966;7.094;2023-07-08T10:59:26;39.90;25.00
11989;DHT22;6054;50.966;7.094;2023-07-08T11:02:15;40.00;24.70
11989;DHT22;6054;50.966;7.094;2023-07-08T11:04:55;40.00;25.30
11989;DHT22;6054;50.966;7.094;2023-07-08T11:07:32;40.10;24.60
11989;DHT22;6054;50.966;7.094;2023-07-08T11:10:05;40.10;24.10
11989;DHT22;6054;50.966;7.094;2023-07-08T11:12:38;40.20;23.80
11989;DHT22;6054;50.966;7.094;2023-07-08T11:15:13;40.20;24.10
11989;DHT22;6054;50.966;7.094;2023-07-08T11:17:45;40.20;24.00
11989;DHT22;6054;50.966;7.094;2023-07-08T11:20:18;40.20;24.20
11989;DHT22;6054;50.966;7.094;2023-07-08T11:22:50;40.30;24.00
11989;DHT22;6054;50.966;7.094;2023-07-08T11:25:21;40.30;23.80
11989;DHT22;6054;50.966;7.094;2023-07-08T11:27:53;40.30;23.90
11989;DHT22;6054;50.966;7.094;2023-07-08T11:30:22;40.30;23.80
11989;DHT22;6054;50.966;7.094;2023-07-08T11:33:08;40.30;23.70
11989;DHT22;6054;50.966;7.094;2023-07-08T11:35:39;40.40;23.80
11989;DHT22;6054;50.966;7.094;2023-07-08T11:38:11;40.50;23.70
11989;DHT22;6054;50.966;7.094;2023-07-08T11:40:52;40.50;23.70
11989;DHT22;6054;50.966;7.094;2023-07-08T11:43:20;40.50;23.90
11989;DHT22;6054;50.966;7.094;2023-07-08T11:45:49;40.60;24.00
11989;DHT22;6054;50.966;7.094;2023-07-08T11:48:21;40.70;23.90
11989;DHT22;6054;50.966;7.094;2023-07-08T11:50:50;40.70;23.70
11989;DHT22;6054;50.966;7.094;2023-07-08T11:53:34;40.70;23.60
11989;DHT22;6054;50.966;7.094;2023-07-08T11:56:04;40.70;23.60
11989;DHT22;6054;50.966;7.094;2023-07-08T11:58:59;40.80;23.30
11989;DHT22;6054;50.966;7.094;2023-07-08T12:01:36;40.80;23.10
11989;DHT22;6054;50.966;7.094;2023-07-08T12:04:17;40.80;23.20
11989;DHT22;6054;50.966;7.094;2023-07-08T12:06:48;40.90;23.40
11989;DHT22;6054;50.966;7.094;2023-07-08T12:09:22;40.90;23.60
11989;DHT22;6054;50.966;7.094;2023-07-08T12:11:57;40.90;23.10
11989;DHT22;6054;50.966;7.094;2023-07-08T12:14:25;40.90;23.30
11989;DHT22;6054;50.966;7.094;2023-07-08T12:16:52;41.00;23.50
11989;DHT22;6054;50.966;7.094;2023-07-08T12:19:21;41.00;23.30
11989;DHT22;6054;50.966;7.094;2023-07-08T12:21:51;41.00;23.40
11989;DHT22;6054;50.966;7.094;2023-07-08T12:24:18;41.00;23.10
11989;DHT22;6054;50.966;7.094;2023-07-08T12:26:51;41.00;23.30
11989;DHT22;6054;50.966;7.094;2023-07-08T12:29:19;41.10;23.40
11989;DHT22;6054;50.966;7.094;2023-07-08T12:31:45;41.10;23.40
11989;DHT22;6054;50.966;7.094;2023-07-08T12:34:14;41.10;23.40
11989;DHT22;6054;50.966;7.094;2023-07-08T12:36:43;41.10;23.40
11989;DHT22;6054;50.966;7.094;2023-07-08T12:39:14;41.10;23.40
11989;DHT22;6054;50.966;7.094;2023-07-08T12:41:42;41.20;23.50
11989;DHT22;6054;50.966;7.094;2023-07-08T12:44:15;41.30;23.40
11989;DHT22;6054;50.966;7.094;2023-07-08T12:46:45;41.40;23.50
11989;DHT22;6054;50.966;7.094;2023-07-08T12:49:14;41.60;24.00
11989;DHT22;6054;50.966;7.094;2023-07-08T12:51:42;41.60;23.50
11989;DHT22;6054;50.966;7.094;2023-07-08T12:54:10;41.60;23.40
11989;DHT22;6054;50.966;7.094;2023-07-08T12:56:37;41.60;23.50
11989;DHT22;6054;50.966;7.094;2023-07-08T12:59:05;41.60;23.20
11989;DHT22;6054;50.966;7.094;2023-07-08T13:01:34;41.60;23.10
11989;DHT22;6054;50.966;7.094;2023-07-08T13:04:05;41.60;23.20
11989;DHT22;6054;50.966;7.094;2023-07-08T13:06:34;41.60;23.40
11989;DHT22;6054;50.966;7.094;2023-07-08T13:09:07;41.60;23.50
11989;DHT22;6054;50.966;7.094;2023-07-08T13:11:36;41.60;23.50
11989;DHT22;6054;50.966;7.094;2023-07-08T13:14:05;41.60;23.30
11989;DHT22;6054;50.966;7.094;2023-07-08T13:16:37;41.60;23.30
11989;DHT22;6054;50.966;7.094;2023-07-08T13:19:05;41.60;23.70
11989;DHT22;6054;50.966;7.094;2023-07-08T13:21:32;41.70;23.50
11989;DHT22;6054;50.966;7.094;2023-07-08T13:23:59;41.70;23.30
11989;DHT22;6054;50.966;7.094;2023-07-08T13:26:29;41.70;23.30
11989;DHT22;6054;50.966;7.094;2023-07-08T13:29:00;41.70;23.40
11989;DHT22;6054;50.966;7.094;2023-07-08T13:31:32;41.70;23.40
11989;DHT22;6054;50.966;7.094;2023-07-08T13:34:07;41.70;23.10
11989;DHT22;6054;50.966;7.094;2023-07-08T13:36:39;41.60;23.20
11989;DHT22;6054;50.966;7.094;2023-07-08T13:39:07;41.60;23.20
11989;DHT22;6054;50.966;7.094;2023-07-08T13:41:35;41.60;23.00
11989;DHT22;6054;50.966;7.094;2023-07-08T13:44:07;41.60;23.30
11989;DHT22;6054;50.966;7.094;2023-07-08T13:46:36;41.60;23.40
11989;DHT22;6054;50.966;7.094;2023-07-08T13:49:12;41.50;23.70
11989;DHT22;6054;50.966;7.094;2023-07-08T13:51:41;41.50;23.80
11989;DHT22;6054;50.966;7.094;2023-07-08T13:54:16;41.60;23.50
11989;DHT22;6054;50.966;7.094;2023-07-08T13:56:45;41.60;23.80
11989;DHT22;6054;50.966;7.094;2023-07-08T13:59:18;41.70;23.60
11989;DHT22;6054;50.966;7.094;2023-07-08T14:01:46;41.70;23.60
11989;DHT22;6054;50.966;7.094;2023-07-08T14:04:18;41.80;23.50
11989;DHT22;6054;50.966;7.094;2023-07-08T14:06:46;41.80;23.60
11989;DHT22;6054;50.966;7.094;2023-07-08T14:09:15;41.80;23.40
11989;DHT22;6054;50.966;7.094;2023-07-08T14:11:42;41.80;23.40
11989;DHT22;6054;50.966;7.094;2023-07-08T14:14:10;41.80;23.50
11989;DHT22;6054;50.966;7.094;2023-07-08T14:16:40;41.80;23.50
11989;DHT22;6054;50.966;7.094;2023-07-08T14:19:14;41.80;23.50
11989;DHT22;6054;50.966;7.094;2023-07-08T14:21:43;41.80;23.40
11989;DHT22;6054;50.966;7.094;2023-07-08T14:24:12;41.80;23.30
11989;DHT22;6054;50.966;7.094;2023-07-08T14:26:42;41.70;23.50
11989;DHT22;6054;50.966;7.094;2023-07-08T14:29:08;41.70;23.60
11989;DHT22;6054;50.966;7.094;2023-07-08T14:31:35;41.70;23.40
11989;DHT22;6054;50.966;7.094;2023-07-08T14:34:05;41.70;23.70
11989;DHT22;6054;50.966;7.094;2023-07-08T14:36:32;41.70;23.70
11989;DHT22;6054;50.966;7.094;2023-07-08T14:39:07;41.70;23.20
11989;DHT22;6054;50.966;7.094;2023-07-08T14:41:35;41.70;23.60
11989;DHT22;6054;50.966;7.094;2023-07-08T14:44:04;41.70;23.50
11989;DHT22;6054;50.966;7.094;2023-07-08T14:46:34;41.60;23.70
11989;DHT22;6054;50.966;7.094;2023-07-08T14:49:01;41.60;23.60
11989;DHT22;6054;50.966;7.094;2023-07-08T14:51:31;41.60;23.80
11989;DHT22;6054;50.966;7.094;2023-07-08T14:53:58;41.60;23.80
11989;DHT22;6054;50.966;7.094;2023-07-08T14:56:26;41.60;23.10
11989;DHT22;6054;50.966;7.094;2023-07-08T14:58:53;41.60;23.60
11989;DHT22;6054;50.966;7.094;2023-07-08T15:01:21;41.70;23.60
11989;DHT22;6054;50.966;7.094;2023-07-08T15:03:49;41.70;23.90
11989;DHT22;6054;50.966;7.094;2023-07-08T15:06:16;41.80;23.80
11989;DHT22;6054;50.966;7.094;2023-07-08T15:08:43;41.70;23.80
11989;DHT22;6054;50.966;7.094;2023-07-08T15:11:11;41.70;24.00
11989;DHT22;6054;50.966;7.094;2023-07-08T15:13:40;41.70;24.10
11989;DHT22;6054;50.966;7.094;2023-07-08T15:16:11;41.70;24.20
11989;DHT22;6054;50.966;7.094;2023-07-08T15:18:39;41.70;24.40
11989;DHT22;6054;50.966;7.094;2023-07-08T15:21:10;41.60;24.20
11989;DHT22;6054;50.966;7.094;2023-07-08T15:23:37;41.60;24.00
11989;DHT22;6054;50.966;7.094;2023-07-08T15:26:04;41.60;24.00
11989;DHT22;6054;50.966;7.094;2023-07-08T15:28:40;41.60;24.20
11989;DHT22;6054;50.966;7.094;2023-07-08T15:31:13;41.60;24.40
11989;DHT22;6054;50.966;7.094;2023-07-08T15:33:40;41.50;24.50
11989;DHT22;6054;50.966;7.094;2023-07-08T15:36:09;41.60;24.70
11989;DHT22;6054;50.966;7.094;2023-07-08T15:38:36;41.60;25.50
11989;DHT22;6054;50.966;7.094;2023-07-08T15:41:03;41.60;25.00
11989;DHT22;6054;50.966;7.094;2023-07-08T15:43:30;41.60;25.40
11989;DHT22;6054;50.966;7.094;2023-07-08T15:46:01;41.60;25.00
11989;DHT22;6054;50.966;7.094;2023-07-08T15:48:28;41.60;24.90
11989;DHT22;6054;50.966;7.094;2023-07-08T15:50:55;41.60;25.00
11989;DHT22;6054;50.966;7.094;2023-07-08T15:53:22;41.60;25.10
11989;DHT22;6054;50.966;7.094;2023-07-08T15:55:48;41.60;25.10
11989;DHT22;6054;50.966;7.094;2023-07-08T15:58:24;41.60;25.00